Time;durP1;ratioP1;P1;durP2;ratioP2;P2;SDS_P1;SDS_P2;PMS_P1;PMS_P2;Temp;Humidity;BMP_temperature;BMP_pressure;BME280_temperature;BME280_humidity;BME280_pressure;Samples;Min_cycle;Max_cycle;Signal;HPM_P1;HPM_P2
2021/08/03 00:00:31;;;;;;;19.27;13.10;;;13.80;99.90;;;;;;4967520;28;20046;-86
2021/08/03 00:03:01;;;;;;;17.17;13.25;;;13.90;99.90;;;;;;4986985;28;20465;-87
2021/08/03 00:05:31;;;;;;;19.55;13.07;;;14.00;99.90;;;;;;4963802;28;20151;-87
2021/08/03 00:08:03;;;;;;;18.00;13.43;;;14.00;99.90;;;;;;4963240;28;20058;-87
2021/08/03 00:10:30;;;;;;;16.55;11.75;;;14.00;99.90;;;;;;4965304;28;20480;-88
2021/08/03 00:13:00;;;;;;;19.70;12.93;;;14.00;99.90;;;;;;4976116;28;20402;-87
2021/08/03 00:15:28;;;;;;;18.98;13.02;;;14.10;99.90;;;;;;4957996;29;20054;-86
2021/08/03 00:17:55;;;;;;;17.83;11.02;;;14.10;99.90;;;;;;4976122;28;20059;-87
2021/08/03 00:20:24;;;;;;;18.42;12.60;;;14.10;99.90;;;;;;4976066;28;20508;-86
2021/08/03 00:22:55;;;;;;;16.23;11.45;;;14.20;99.90;;;;;;4960966;28;20051;-88
2021/08/03 00:25:23;;;;;;;;;;;14.20;99.90;;;;;;4960383;28;20043;-88
2021/08/03 00:27:49;;;;;;;16.58;12.52;;;14.30;99.90;;;;;;4977632;28;19910;-87
2021/08/03 00:30:15;;;;;;;17.52;13.48;;;14.30;99.90;;;;;;4958787;28;20047;-87
2021/08/03 00:32:42;;;;;;;16.92;13.60;;;14.40;99.90;;;;;;4979037;28;20095;-86
2021/08/03 00:35:08;;;;;;;16.65;12.00;;;14.50;99.90;;;;;;4981467;28;20031;-87
2021/08/03 00:37:36;;;;;;;14.88;12.15;;;14.50;99.90;;;;;;4986026;28;20058;-88
2021/08/03 00:40:05;;;;;;;16.75;13.05;;;14.50;99.90;;;;;;4964360;29;20047;-87
2021/08/03 00:42:31;;;;;;;18.20;13.13;;;14.60;99.90;;;;;;4961423;28;20051;-85
2021/08/03 00:44:59;;;;;;;18.38;12.07;;;14.60;99.90;;;;;;4979898;28;20397;-87
2021/08/03 00:47:33;;;;;;;19.15;13.13;;;14.60;99.90;;;;;;4977132;28;20477;-87
2021/08/03 00:50:07;;;;;;;19.42;13.35;;;14.60;99.90;;;;;;4970981;28;20038;-88
2021/08/03 00:52:35;;;;;;;18.98;12.65;;;14.70;99.90;;;;;;4963462;28;20082;-87
2021/08/03 00:55:03;;;;;;;21.52;12.23;;;14.60;99.90;;;;;;4976611;28;20038;-87
2021/08/03 00:57:32;;;;;;;18.55;12.77;;;14.50;99.90;;;;;;4976524;28;20039;-86
2021/08/03 00:59:59;;;;;;;19.55;12.35;;;14.50;99.90;;;;;;4973334;28;20054;-86
2021/08/03 01:02:30;;;;;;;18.23;12.32;;;14.50;99.90;;;;;;4977350;28;20051;-86
2021/08/03 01:05:00;;;;;;;19.67;12.68;;;14.50;99.90;;;;;;4977524;28;20038;-87
2021/08/03 01:07:40;;;;;;;19.27;12.13;;;14.50;99.90;;;;;;4976211;28;20055;-87
2021/08/03 01:10:42;;;;;;;21.25;12.63;;;14.50;99.90;;;;;;4974520;28;20039;-86
2021/08/03 01:13:41;;;;;;;19.08;12.95;;;14.50;99.90;;;;;;4972007;28;20119;-87
2021/08/03 01:16:31;;;;;;;17.67;12.10;;;14.50;99.90;;;;;;4973548;28;20039;-85
2021/08/03 01:19:15;;;;;;;19.05;12.10;;;14.50;99.90;;;;;;4964752;28;20050;-86
2021/08/03 01:21:56;;;;;;;14.77;10.55;;;14.50;99.90;;;;;;4940969;28;20045;-85
2021/08/03 01:24:48;;;;;;;16.73;10.82;;;14.50;99.90;;;;;;4969221;28;20043;-86
2021/08/03 01:27:51;;;;;;;15.88;10.63;;;14.50;99.90;;;;;;4958955;28;20044;-86
2021/08/03 01:30:19;;;;;;;15.52;10.25;;;14.40;99.90;;;;;;4971375;28;20039;-87
2021/08/03 01:32:48;;;;;;;15.88;10.98;;;14.40;99.90;;;;;;4969766;28;20030;-86
2021/08/03 01:35:16;;;;;;;12.48;9.98;;;14.40;99.90;;;;;;4970908;28;20047;-85
2021/08/03 01:37:47;;;;;;;13.15;10.18;;;14.40;99.90;;;;;;4955075;28;20051;-86
2021/08/03 01:40:16;;;;;;;15.63;9.68;;;14.40;99.90;;;;;;4956063;28;20039;-86
2021/08/03 01:42:46;;;;;;;13.48;9.25;;;14.40;99.90;;;;;;4976216;28;20046;-85
2021/08/03 01:45:16;;;;;;;14.95;10.18;;;14.30;99.90;;;;;;4973818;28;20043;-86
2021/08/03 01:47:43;;;;;;;11.40;9.18;;;14.30;99.90;;;;;;4963953;28;20043;-87
2021/08/03 01:50:12;;;;;;;13.65;8.98;;;14.20;99.90;;;;;;4988788;28;20039;-86
2021/08/03 01:52:45;;;;;;;13.38;8.38;;;14.20;99.90;;;;;;4972856;28;20049;-86
2021/08/03 01:55:20;;;;;;;14.35;8.45;;;14.20;99.90;;;;;;4988446;28;20123;-86
2021/08/03 01:57:49;;;;;;;10.57;8.95;;;14.20;99.90;;;;;;4970534;28;20512;-86
2021/08/03 02:00:28;;;;;;;9.65;8.02;;;14.20;99.90;;;;;;4973008;28;20050;-86
2021/08/03 02:03:06;;;;;;;11.95;9.05;;;14.10;99.90;;;;;;4972991;28;20031;-86
2021/08/03 02:05:34;;;;;;;11.30;8.15;;;14.10;99.90;;;;;;4988219;28;20046;-84
2021/08/03 02:08:09;;;;;;;10.05;7.93;;;14.00;99.90;;;;;;4969058;28;20058;-86
2021/08/03 02:10:38;;;;;;;11.70;8.48;;;14.00;99.90;;;;;;4957829;28;20511;-87
2021/08/03 02:13:06;;;;;;;12.30;9.15;;;14.00;99.90;;;;;;4973520;28;20039;-86
2021/08/03 02:15:32;;;;;;;12.55;8.68;;;14.10;99.90;;;;;;4973366;28;20047;-86
2021/08/03 02:17:59;;;;;;;14.93;9.02;;;14.10;99.90;;;;;;4957864;28;20051;-86
2021/08/03 02:20:33;;;;;;;11.77;8.15;;;14.10;99.90;;;;;;4971855;28;20054;-86
2021/08/03 02:23:04;;;;;;;13.13;8.13;;;14.00;99.90;;;;;;4954905;28;20051;-85
2021/08/03 02:25:34;;;;;;;9.73;7.88;;;13.90;99.90;;;;;;4965834;28;20035;-86
2021/08/03 02:28:02;;;;;;;12.52;8.60;;;13.90;99.90;;;;;;4970089;28;20050;-85
2021/08/03 02:30:30;;;;;;;10.23;8.60;;;13.80;99.90;;;;;;4971991;28;20320;-86
2021/08/03 02:33:07;;;;;;;12.05;8.20;;;13.80;99.90;;;;;;4972023;28;20043;-84
2021/08/03 02:35:51;;;;;;;11.23;7.90;;;13.80;99.90;;;;;;4996121;28;20062;-83
2021/08/03 02:38:22;;;;;;;12.35;9.13;;;13.80;99.90;;;;;;4982178;28;20051;-86
2021/08/03 02:40:50;;;;;;;10.40;8.20;;;13.80;99.90;;;;;;4972598;28;20042;-86
2021/08/03 02:43:27;;;;;;;11.02;8.23;;;13.80;99.90;;;;;;4975171;28;20042;-85
2021/08/03 02:46:02;;;;;;;11.50;7.22;;;13.80;99.90;;;;;;4962251;28;20039;-86
2021/08/03 02:48:30;;;;;;;10.90;7.55;;;13.80;99.90;;;;;;4979047;28;20035;-86
2021/08/03 02:50:58;;;;;;;11.23;7.28;;;13.80;99.90;;;;;;4980867;28;20021;-86
2021/08/03 02:53:33;;;;;;;13.80;9.07;;;13.70;99.90;;;;;;4992291;28;20046;-85
2021/08/03 02:56:21;;;;;;;9.65;7.35;;;13.70;99.90;;;;;;4963605;28;20048;-84
2021/08/03 02:59:00;;;;;;;10.05;7.18;;;13.70;99.90;;;;;;4966279;28;20057;-86
2021/08/03 03:01:29;;;;;;;10.40;7.45;;;13.60;99.90;;;;;;4972816;28;20035;-84
2021/08/03 03:04:08;;;;;;;12.05;7.78;;;13.70;99.90;;;;;;4971657;28;20107;-87
2021/08/03 03:06:39;;;;;;;12.70;7.68;;;13.60;99.90;;;;;;4959705;28;20027;-87
2021/08/03 03:09:05;;;;;;;11.40;7.70;;;13.60;99.90;;;;;;4964207;28;20404;-86
2021/08/03 03:11:35;;;;;;;11.15;8.63;;;13.60;99.90;;;;;;4990402;28;20053;-87
2021/08/03 03:14:07;;;;;;;11.88;8.07;;;13.60;99.90;;;;;;4968104;28;20038;-86
2021/08/03 03:16:39;;;;;;;;;;;13.70;99.90;;;;;;4973658;28;20034;-84
2021/08/03 03:19:07;;;;;;;12.00;7.28;;;13.60;99.90;;;;;;4977476;28;19914;-86
2021/08/03 03:21:35;;;;;;;9.88;7.60;;;13.70;99.90;;;;;;4988756;28;20054;-87
2021/08/03 03:24:03;;;;;;;10.32;7.82;;;13.70;99.90;;;;;;4973539;28;20493;-86
2021/08/03 03:26:33;;;;;;;11.45;8.10;;;13.70;99.90;;;;;;4960841;28;20493;-86
2021/08/03 03:29:06;;;;;;;11.75;7.25;;;13.80;99.90;;;;;;4960337;28;20444;-86
2021/08/03 03:31:34;;;;;;;11.20;7.15;;;13.80;99.90;;;;;;4979307;28;20043;-87
2021/08/03 03:34:04;;;;;;;10.85;7.00;;;13.70;99.90;;;;;;4978087;28;20408;-87
2021/08/03 03:36:33;;;;;;;8.82;6.75;;;13.60;99.90;;;;;;4972694;28;20058;-86
2021/08/03 03:39:02;;;;;;;9.57;7.47;;;13.60;99.90;;;;;;4965102;28;20047;-87
2021/08/03 03:41:33;;;;;;;10.27;7.13;;;13.60;99.90;;;;;;4976710;28;20047;-87
2021/08/03 03:44:01;;;;;;;8.52;6.20;;;13.60;99.90;;;;;;4976283;28;20039;-87
2021/08/03 03:46:34;;;;;;;9.68;7.10;;;13.60;99.90;;;;;;4966719;28;20035;-86
2021/08/03 03:49:08;;;;;;;10.10;6.57;;;13.60;99.90;;;;;;4957471;28;20043;-86
2021/08/03 03:51:41;;;;;;;10.27;7.03;;;13.60;99.90;;;;;;4972644;28;20048;-86
2021/08/03 03:54:12;;;;;;;9.25;6.93;;;13.60;99.90;;;;;;4978919;28;20035;-86
2021/08/03 03:56:47;;;;;;;8.38;6.63;;;13.60;99.90;;;;;;4964858;28;20047;-86
2021/08/03 03:59:19;;;;;;;10.60;6.45;;;13.60;99.90;;;;;;4982971;28;20070;-86
2021/08/03 04:01:47;;;;;;;;;;;13.60;99.90;;;;;;4975580;28;20044;-86
2021/08/03 04:04:17;;;;;;;10.07;7.05;;;13.60;99.90;;;;;;4956190;28;20360;-86
2021/08/03 04:06:44;;;;;;;12.27;7.63;;;13.70;99.90;;;;;;4970990;28;20057;-86
2021/08/03 04:09:23;;;;;;;10.27;7.35;;;13.70;99.90;;;;;;4962446;28;20047;-86
2021/08/03 04:11:53;;;;;;;12.98;7.78;;;13.70;99.90;;;;;;4969040;28;20030;-86
2021/08/03 04:14:27;;;;;;;9.93;7.93;;;13.70;99.90;;;;;;4975503;28;20035;-87
2021/08/03 04:17:05;;;;;;;12.13;7.60;;;13.70;99.90;;;;;;4977651;28;20042;-87
2021/08/03 04:19:32;;;;;;;11.20;8.13;;;13.70;99.90;;;;;;4990177;28;20038;-87
2021/08/03 04:21:58;;;;;;;10.77;8.23;;;13.80;99.90;;;;;;4990187;28;20396;-86
2021/08/03 04:24:24;;;;;;;12.10;8.43;;;13.80;99.90;;;;;;4974530;28;20027;-86
2021/08/03 04:26:50;;;;;;;13.98;8.27;;;13.80;99.90;;;;;;4975729;28;20053;-85
2021/08/03 04:29:17;;;;;;;12.02;7.97;;;13.90;99.90;;;;;;4974059;28;20527;-86
2021/08/03 04:31:43;;;;;;;10.80;8.45;;;13.90;99.90;;;;;;4976204;28;20031;-85
2021/08/03 04:34:09;;;;;;;10.68;8.25;;;13.90;99.90;;;;;;4966492;28;20031;-86
2021/08/03 04:36:36;;;;;;;11.57;8.65;;;13.90;99.90;;;;;;4975387;28;20362;-86
2021/08/03 04:39:10;;;;;;;13.13;8.15;;;14.00;99.90;;;;;;4980295;28;20477;-85
2021/08/03 04:41:38;;;;;;;10.68;7.65;;;14.00;99.90;;;;;;4963641;28;20043;-87
2021/08/03 04:44:04;;;;;;;10.25;7.57;;;14.00;99.90;;;;;;4982808;28;20043;-85
2021/08/03 04:46:30;;;;;;;12.52;7.88;;;14.10;99.90;;;;;;4980795;28;20046;-86
2021/08/03 04:48:57;;;;;;;9.82;7.53;;;14.10;99.90;;;;;;4978428;28;20504;-86
2021/08/03 04:51:23;;;;;;;10.50;8.25;;;14.10;99.90;;;;;;4975498;28;20042;-86
2021/08/03 04:53:49;;;;;;;11.32;7.85;;;14.20;99.90;;;;;;4975639;28;20034;-86
2021/08/03 04:56:15;;;;;;;10.43;8.32;;;14.20;99.90;;;;;;4975146;28;20045;-86
2021/08/03 04:58:41;;;;;;;11.88;8.23;;;14.20;99.90;;;;;;4975143;28;20055;-84
2021/08/03 05:01:08;;;;;;;9.68;7.25;;;14.30;99.90;;;;;;4974878;28;20039;-86
2021/08/03 05:03:34;;;;;;;11.40;7.32;;;14.30;99.90;;;;;;4983162;28;20378;-86
2021/08/03 05:06:00;;;;;;;10.75;7.70;;;14.30;99.90;;;;;;4966101;28;20027;-86
2021/08/03 05:08:27;;;;;;;10.00;7.45;;;14.40;99.90;;;;;;4971315;28;20035;-86
2021/08/03 05:10:53;;;;;;;7.82;6.50;;;14.40;99.90;;;;;;4971510;28;20026;-86
2021/08/03 05:13:19;;;;;;;10.57;7.25;;;14.40;99.90;;;;;;4975840;28;20038;-86
2021/08/03 05:15:45;;;;;;;8.40;6.45;;;14.50;99.90;;;;;;4974512;28;20046;-86
2021/08/03 05:18:11;;;;;;;7.95;5.80;;;14.50;99.90;;;;;;4956365;28;20031;-85
2021/08/03 05:20:38;;;;;;;8.32;5.40;;;14.40;99.90;;;;;;4970947;28;20046;-86
2021/08/03 05:23:04;;;;;;;6.72;5.18;;;14.50;99.90;;;;;;4973264;28;20386;-86
2021/08/03 05:25:30;;;;;;;7.30;5.18;;;14.50;99.90;;;;;;4975124;28;20047;-85
2021/08/03 05:27:56;;;;;;;5.50;4.80;;;14.50;99.90;;;;;;4956004;28;20035;-85
2021/08/03 05:30:22;;;;;;;7.00;4.38;;;14.60;99.90;;;;;;4958614;28;20041;-82
2021/08/03 05:32:49;;;;;;;6.80;4.38;;;14.60;99.90;;;;;;4972883;28;20035;-82
2021/08/03 05:35:15;;;;;;;7.32;5.10;;;14.60;99.90;;;;;;4978014;28;20026;-83
2021/08/03 05:37:41;;;;;;;6.65;4.97;;;14.70;99.90;;;;;;4979165;28;20049;-83
2021/08/03 05:40:12;;;;;;;5.28;4.65;;;14.80;99.90;;;;;;4981299;28;20043;-88
2021/08/03 05:42:39;;;;;;;7.97;5.03;;;14.80;99.90;;;;;;4982796;28;20073;-82
2021/08/03 05:45:05;;;;;;;6.70;4.18;;;14.90;99.90;;;;;;4978939;28;20042;-83
2021/08/03 05:47:32;;;;;;;5.30;4.40;;;14.90;99.90;;;;;;4982630;28;20022;-83
2021/08/03 05:49:58;;;;;;;5.35;4.28;;;14.90;99.90;;;;;;4975288;28;20049;-83
2021/08/03 05:52:24;;;;;;;8.65;4.07;;;15.00;99.90;;;;;;4975513;28;20023;-83
2021/08/03 05:54:51;;;;;;;4.55;3.92;;;15.10;99.90;;;;;;4968563;28;20035;-82
2021/08/03 05:57:17;;;;;;;5.88;4.63;;;15.20;99.90;;;;;;4954871;28;20035;-82
2021/08/03 05:59:43;;;;;;;5.63;4.47;;;15.30;99.90;;;;;;4972757;28;20047;-81
2021/08/03 06:02:09;;;;;;;5.05;4.43;;;15.40;99.90;;;;;;4961769;28;20031;-82
2021/08/03 06:04:35;;;;;;;7.00;4.30;;;15.40;99.90;;;;;;4968843;28;20390;-81
2021/08/03 06:07:02;;;;;;;5.78;4.13;;;15.50;99.90;;;;;;4969671;28;20042;-83
2021/08/03 06:09:30;;;;;;;6.15;3.60;;;15.60;99.90;;;;;;4982282;28;20468;-81
2021/08/03 06:11:58;;;;;;;5.13;4.00;;;15.80;99.90;;;;;;4977757;28;20038;-83
2021/08/03 06:14:44;;;;;;;6.03;4.00;;;15.90;99.90;;;;;;4967985;28;20047;-80
2021/08/03 06:17:14;;;;;;;4.40;3.45;;;15.90;99.90;;;;;;4987835;28;20030;-83
2021/08/03 06:19:44;;;;;;;7.45;4.15;;;15.80;99.90;;;;;;4979735;28;20018;-85
2021/08/03 06:22:10;;;;;;;8.25;3.95;;;15.80;99.90;;;;;;4981066;28;20377;-83
2021/08/03 06:24:38;;;;;;;5.47;3.65;;;15.80;99.90;;;;;;4973830;28;20047;-83
2021/08/03 06:27:10;;;;;;;4.80;3.58;;;15.80;99.90;;;;;;4988925;28;20385;-83
2021/08/03 06:29:38;;;;;;;6.55;4.35;;;15.80;99.90;;;;;;4989541;28;20054;-83
2021/08/03 06:32:06;;;;;;;6.05;4.35;;;15.80;99.90;;;;;;4974983;28;20054;-83
2021/08/03 06:34:38;;;;;;;6.03;4.60;;;15.70;99.90;;;;;;4979485;28;20043;-83
2021/08/03 06:37:05;;;;;;;7.93;5.10;;;15.70;99.90;;;;;;4973082;28;20042;-83
2021/08/03 06:39:32;;;;;;;5.45;3.80;;;15.60;99.90;;;;;;4950104;28;20062;-83
2021/08/03 06:42:34;;;;;;;5.07;4.57;;;15.60;99.90;;;;;;4973957;28;20035;-83
2021/08/03 06:45:11;;;;;;;5.78;4.57;;;15.60;99.90;;;;;;4953854;28;20070;-84
2021/08/03 06:48:05;;;;;;;6.57;5.35;;;15.70;99.90;;;;;;4974414;28;20046;-83
2021/08/03 06:50:39;;;;;;;7.57;5.57;;;15.80;99.90;;;;;;4975111;28;20492;-82
2021/08/03 06:53:09;;;;;;;8.65;5.47;;;15.90;99.90;;;;;;4974870;28;20054;-82
2021/08/03 06:55:40;;;;;;;8.02;5.07;;;16.00;99.90;;;;;;4975969;28;20050;-83
2021/08/03 06:58:16;;;;;;;7.53;5.28;;;16.10;99.90;;;;;;4960623;28;20031;-83
2021/08/03 07:00:45;;;;;;;7.90;5.20;;;16.30;99.90;;;;;;4968073;28;20044;-82
2021/08/03 07:03:15;;;;;;;7.03;5.25;;;16.40;99.90;;;;;;4959049;28;20046;-84
2021/08/03 07:05:53;;;;;;;7.15;4.90;;;16.50;99.90;;;;;;4973160;28;20039;-83
2021/08/03 07:08:21;;;;;;;5.20;4.38;;;16.40;99.90;;;;;;4971845;28;20042;-83
2021/08/03 07:10:51;;;;;;;7.68;5.07;;;16.40;99.90;;;;;;4974870;28;20039;-83
2021/08/03 07:13:18;;;;;;;9.60;5.22;;;16.30;99.90;;;;;;4957658;28;20044;-83
2021/08/03 07:15:45;;;;;;;6.55;4.10;;;16.40;99.90;;;;;;4977487;28;20038;-82
2021/08/03 07:18:12;;;;;;;6.00;4.38;;;16.40;99.90;;;;;;4976837;28;20388;-83
2021/08/03 07:20:42;;;;;;;7.75;4.20;;;16.40;99.90;;;;;;4978022;28;20465;-82
2021/08/03 07:23:10;;;;;;;5.72;3.72;;;16.50;99.90;;;;;;4979350;28;20027;-81
2021/08/03 07:25:36;;;;;;;6.35;3.70;;;16.50;99.90;;;;;;4967694;28;20039;-81
2021/08/03 07:28:03;;;;;;;6.68;4.07;;;16.60;99.90;;;;;;4976542;28;20039;-82
2021/08/03 07:30:29;;;;;;;7.25;3.90;;;16.70;99.90;;;;;;4976126;28;20581;-82
2021/08/03 07:32:55;;;;;;;4.85;4.13;;;16.90;99.90;;;;;;4974208;28;20053;-82
2021/08/03 07:35:21;;;;;;;7.82;3.95;;;17.00;99.90;;;;;;4974778;28;20038;-82
2021/08/03 07:37:48;;;;;;;6.60;4.70;;;17.10;99.90;;;;;;4975542;28;20031;-82
2021/08/03 07:40:14;;;;;;;5.45;4.05;;;17.20;99.90;;;;;;4975149;28;20042;-82
2021/08/03 07:42:40;;;;;;;7.10;4.47;;;17.20;99.90;;;;;;4974581;28;20046;-74
2021/08/03 07:45:07;;;;;;;9.25;5.22;;;17.20;99.90;;;;;;4974876;28;20361;-80
2021/08/03 07:47:34;;;;;;;9.10;4.90;;;17.20;99.90;;;;;;4965919;28;20042;-74
2021/08/03 07:50:00;;;;;;;9.35;6.72;;;17.20;99.90;;;;;;4962882;28;20039;-80
2021/08/03 07:52:26;;;;;;;9.02;5.22;;;17.20;99.90;;;;;;4965702;28;20060;-79
2021/08/03 07:54:52;;;;;;;7.53;4.53;;;17.10;99.90;;;;;;4971679;28;20047;-79
2021/08/03 07:57:19;;;;;;;7.38;4.32;;;16.90;99.90;;;;;;4956572;28;20390;-79
2021/08/03 07:59:45;;;;;;;10.18;6.10;;;16.80;99.90;;;;;;4965092;28;20508;-77
2021/08/03 08:02:11;;;;;;;6.88;5.93;;;16.70;99.90;;;;;;4961951;28;20492;-79
2021/08/03 08:04:37;;;;;;;7.78;6.47;;;16.60;99.90;;;;;;4973251;28;20035;-79
2021/08/03 08:07:04;;;;;;;10.25;7.15;;;16.50;99.90;;;;;;4967879;28;20027;-79
2021/08/03 08:09:30;;;;;;;8.43;6.35;;;16.40;99.90;;;;;;4964620;28;20058;-80
2021/08/03 08:11:56;;;;;;;7.78;5.88;;;16.50;99.90;;;;;;4973921;28;20039;-79
2021/08/03 08:14:23;;;;;;;9.40;5.95;;;16.50;99.90;;;;;;4963856;28;20435;-78
2021/08/03 08:16:49;;;;;;;7.93;5.63;;;16.40;99.90;;;;;;4973651;28;20386;-78
2021/08/03 08:19:15;;;;;;;6.60;5.78;;;16.50;99.90;;;;;;4969267;28;20043;-78
2021/08/03 08:21:41;;;;;;;8.15;6.45;;;16.50;99.90;;;;;;4970895;28;20067;-78
2021/08/03 08:24:08;;;;;;;7.40;5.88;;;16.50;99.90;;;;;;4957316;28;20038;-78
2021/08/03 08:26:34;;;;;;;7.10;5.00;;;16.70;99.90;;;;;;4972139;28;20053;-78
2021/08/03 08:29:00;;;;;;;7.18;5.47;;;16.80;99.90;;;;;;4973268;28;20496;-78
2021/08/03 08:31:27;;;;;;;7.50;5.38;;;16.80;99.90;;;;;;4976623;28;20457;-77
2021/08/03 08:33:53;;;;;;;7.05;5.25;;;16.90;99.90;;;;;;4990492;28;20035;-78
2021/08/03 08:36:19;;;;;;;7.80;5.53;;;17.00;99.90;;;;;;4968291;28;20062;-80
2021/08/03 08:38:45;;;;;;;7.82;5.97;;;17.10;99.90;;;;;;4973231;28;20487;-78
2021/08/03 08:41:12;;;;;;;8.68;4.90;;;17.10;99.90;;;;;;4965426;28;20039;-78
2021/08/03 08:43:40;;;;;;;6.38;4.10;;;16.90;99.90;;;;;;4965953;28;20043;-77
2021/08/03 08:46:08;;;;;;;6.50;4.22;;;16.80;99.90;;;;;;4969638;28;20046;-77
2021/08/03 08:48:36;;;;;;;7.38;4.90;;;16.70;99.90;;;;;;4961681;28;20046;-77
2021/08/03 08:51:04;;;;;;;7.53;5.03;;;16.50;99.90;;;;;;4973358;28;20039;-77
2021/08/03 08:53:33;;;;;;;5.47;4.50;;;16.50;99.90;;;;;;4972675;28;20028;-77
2021/08/03 08:56:01;;;;;;;7.57;4.70;;;16.40;99.90;;;;;;4973213;28;20026;-77
2021/08/03 08:58:32;;;;;;;8.20;5.53;;;16.40;99.90;;;;;;4933531;28;1143151;-77
2021/08/03 09:00:58;;;;;;;;;;;16.30;99.90;;;;;;4973757;28;20385;-77
2021/08/03 09:03:24;;;;;;;11.73;5.63;;;16.10;99.90;;;;;;4968528;28;20038;-74
2021/08/03 09:06:02;;;;;;;6.65;4.07;;;15.90;99.90;;;;;;4962153;28;20037;-77
2021/08/03 09:08:40;;;;;;;6.25;2.95;;;15.70;99.90;;;;;;4965787;28;20115;-74
2021/08/03 09:11:11;;;;;;;4.30;2.88;;;15.60;99.90;;;;;;4966613;28;20035;-74
2021/08/03 09:13:58;;;;;;;3.17;2.60;;;15.60;99.90;;;;;;4974136;28;20054;-74
2021/08/03 09:16:27;;;;;;;2.45;1.80;;;15.80;99.90;;;;;;4973142;28;20034;-75
2021/08/03 09:18:54;;;;;;;5.22;2.17;;;15.90;99.90;;;;;;4963582;28;20043;-74
2021/08/03 09:21:26;;;;;;;2.88;1.50;;;15.90;99.90;;;;;;4954153;28;20039;-77
2021/08/03 09:23:54;;;;;;;2.83;1.30;;;15.80;99.90;;;;;;4954580;28;20058;-78
2021/08/03 09:26:43;;;;;;;2.72;1.75;;;15.90;99.90;;;;;;4979866;28;20038;-77
2021/08/03 09:29:11;;;;;;;2.42;1.42;;;15.90;99.90;;;;;;4973190;28;20041;-78
2021/08/03 09:31:40;;;;;;;2.00;1.33;;;15.90;99.90;;;;;;4963563;28;20039;-77
2021/08/03 09:34:16;;;;;;;1.90;1.10;;;15.90;99.90;;;;;;4963265;28;20035;-76
2021/08/03 09:36:48;;;;;;;2.38;1.40;;;15.80;99.90;;;;;;4973414;28;20034;-77
2021/08/03 09:39:37;;;;;;;3.58;1.40;;;15.70;99.90;;;;;;4973348;28;20035;-76
2021/08/03 09:42:11;;;;;;;3.22;1.58;;;15.70;99.90;;;;;;4967295;28;20505;-76
2021/08/03 09:44:46;;;;;;;4.45;2.15;;;15.80;99.90;;;;;;4970952;28;20035;-76
2021/08/03 09:47:12;;;;;;;2.45;1.75;;;16.00;99.90;;;;;;4972128;28;20086;-80
2021/08/03 09:49:41;;;;;;;2.90;1.70;;;16.10;99.90;;;;;;4970240;28;20043;-77
2021/08/03 09:52:13;;;;;;;3.28;1.70;;;16.00;99.90;;;;;;4958611;28;20027;-76
2021/08/03 09:54:40;;;;;;;4.43;1.60;;;15.90;99.90;;;;;;4962304;28;20031;-78
2021/08/03 09:57:25;;;;;;;3.05;1.70;;;15.90;99.90;;;;;;4971820;28;20389;-77
2021/08/03 09:59:53;;;;;;;2.95;1.90;;;15.90;99.90;;;;;;4957484;28;20492;-78
2021/08/03 10:02:23;;;;;;;4.68;2.13;;;16.00;99.90;;;;;;4970224;28;20046;-78
2021/08/03 10:04:51;;;;;;;3.85;1.73;;;16.20;99.90;;;;;;4963590;28;20050;-79
2021/08/03 10:07:17;;;;;;;3.60;2.03;;;16.10;99.90;;;;;;4973283;28;20031;-78
2021/08/03 10:09:46;;;;;;;4.10;2.47;;;16.00;99.90;;;;;;4968578;28;20396;-79
2021/08/03 10:12:13;;;;;;;4.10;2.30;;;16.00;99.90;;;;;;4978984;28;20037;-74
2021/08/03 10:14:39;;;;;;;6.03;2.58;;;16.10;99.90;;;;;;4973558;28;20034;-79
2021/08/03 10:17:08;;;;;;;3.50;2.00;;;16.30;99.90;;;;;;4965194;28;20035;-78
2021/08/03 10:19:36;;;;;;;2.42;2.00;;;16.30;99.90;;;;;;4970861;28;20057;-76
2021/08/03 10:22:14;;;;;;;4.75;2.75;;;16.30;99.90;;;;;;4972370;28;20031;-75
2021/08/03 10:24:54;;;;;;;2.65;1.88;;;16.40;99.90;;;;;;4955323;28;20469;-76
2021/08/03 10:27:20;;;;;;;3.55;1.90;;;16.70;99.90;;;;;;4953870;28;20038;-78
2021/08/03 10:29:49;;;;;;;5.38;1.95;;;16.80;99.90;;;;;;4972252;28;20042;-76
2021/08/03 10:32:42;;;;;;;2.83;1.60;;;17.00;99.90;;;;;;4971439;28;20054;-76
2021/08/03 10:35:15;;;;;;;3.67;1.30;;;17.10;99.90;;;;;;4972354;28;20035;-74
2021/08/03 10:37:57;;;;;;;2.92;1.50;;;17.10;99.90;;;;;;4973016;28;20038;-77
2021/08/03 10:40:48;;;;;;;3.90;1.60;;;17.40;99.90;;;;;;4971781;28;20038;-79
2021/08/03 10:43:24;;;;;;;3.28;1.58;;;17.50;99.90;;;;;;4964210;28;20039;-78
2021/08/03 10:46:06;;;;;;;3.15;1.45;;;17.40;99.90;;;;;;4967675;28;20043;-78
2021/08/03 10:48:38;;;;;;;2.53;1.60;;;17.50;99.90;;;;;;4971884;28;20377;-77
2021/08/03 10:51:16;;;;;;;2.08;1.30;;;17.50;99.90;;;;;;4969335;28;20143;-77
2021/08/03 10:53:57;;;;;;;2.42;1.38;;;17.30;99.90;;;;;;4954516;28;20035;-75
2021/08/03 10:56:23;;;;;;;3.90;1.40;;;17.40;99.90;;;;;;4955569;28;20035;-76
2021/08/03 10:58:50;;;;;;;2.25;1.70;;;17.80;99.90;;;;;;4972654;28;20412;-78
2021/08/03 11:01:45;;;;;;;3.15;1.70;;;18.40;99.90;;;;;;4971227;28;20400;-76
2021/08/03 11:04:46;;;;;;;2.47;1.30;;;18.70;99.90;;;;;;4971725;28;20041;-80
2021/08/03 11:07:25;;;;;;;3.70;1.60;;;18.60;99.90;;;;;;4954732;28;20046;-79
2021/08/03 11:09:55;;;;;;;3.08;1.13;;;18.70;99.90;;;;;;4972439;28;20472;-78
2021/08/03 11:12:36;;;;;;;2.17;1.30;;;19.20;99.90;;;;;;4965460;28;20027;-77
2021/08/03 11:15:21;;;;;;;2.05;0.80;;;19.70;99.90;;;;;;4953463;28;20036;-77
2021/08/03 11:18:06;;;;;;;3.38;1.30;;;19.50;99.90;;;;;;4972327;28;20031;-77
2021/08/03 11:20:41;;;;;;;1.83;0.95;;;19.50;99.90;;;;;;4968742;28;20481;-76
2021/08/03 11:23:16;;;;;;;1.30;0.90;;;19.70;99.90;;;;;;4966079;28;20034;-73
2021/08/03 11:25:44;;;;;;;1.45;1.00;;;19.50;99.90;;;;;;4972191;28;20107;-78
2021/08/03 11:28:16;;;;;;;0.90;0.70;;;20.00;99.90;;;;;;4971907;28;20393;-76
2021/08/03 11:30:45;;;;;;;5.72;1.00;;;20.50;99.90;;;;;;4972350;28;20039;-75
2021/08/03 11:33:13;;;;;;;1.00;0.80;;;20.80;99.90;;;;;;4973574;28;20050;-76
2021/08/03 11:35:40;;;;;;;1.17;0.95;;;21.30;98.90;;;;;;4988703;28;20041;-76
2021/08/03 11:38:09;;;;;;;2.17;1.00;;;21.30;96.50;;;;;;4959766;28;20033;-77
2021/08/03 11:40:37;;;;;;;1.67;1.10;;;20.90;96.50;;;;;;4989832;28;20051;-77
2021/08/03 11:43:04;;;;;;;1.35;1.00;;;20.50;97.80;;;;;;4975469;28;20046;-78
2021/08/03 11:45:36;;;;;;;1.85;1.00;;;20.60;97.90;;;;;;4973954;28;20488;-78
2021/08/03 11:48:05;;;;;;;1.90;0.95;;;20.40;97.70;;;;;;4971036;28;20031;-77
2021/08/03 11:50:31;;;;;;;1.73;1.08;;;20.80;97.80;;;;;;4963152;28;20037;-77
2021/08/03 11:53:10;;;;;;;2.00;1.23;;;20.90;96.60;;;;;;4973935;28;20489;-77
2021/08/03 11:55:39;;;;;;;4.20;1.30;;;21.10;96.80;;;;;;4970985;28;20038;-78
2021/08/03 11:58:05;;;;;;;1.52;1.02;;;21.00;95.40;;;;;;4964698;28;20064;-78
2021/08/03 12:00:33;;;;;;;1.58;1.00;;;20.70;95.40;;;;;;4957178;29;20477;-80
2021/08/03 12:03:01;;;;;;;1.92;1.15;;;20.80;94.50;;;;;;4957435;28;20397;-79
2021/08/03 12:05:32;;;;;;;3.13;1.20;;;21.10;94.50;;;;;;4974012;28;20456;-78
2021/08/03 12:08:09;;;;;;;1.95;1.35;;;21.00;94.90;;;;;;4976187;28;20035;-79
2021/08/03 12:10:47;;;;;;;2.33;1.10;;;21.30;94.30;;;;;;4972019;28;20431;-78
2021/08/03 12:13:37;;;;;;;3.40;1.10;;;21.60;92.50;;;;;;4955598;28;20393;-79
2021/08/03 12:16:05;;;;;;;1.25;0.80;;;21.50;92.60;;;;;;4975458;28;20043;-79
2021/08/03 12:18:43;;;;;;;1.73;1.20;;;21.30;92.00;;;;;;4975079;28;20042;-80
2021/08/03 12:21:11;;;;;;;2.72;1.05;;;21.10;92.00;;;;;;4974815;28;20469;-79
2021/08/03 12:23:39;;;;;;;2.17;1.13;;;21.00;92.60;;;;;;4974638;28;20050;-81
2021/08/03 12:26:07;;;;;;;1.20;0.80;;;21.00;92.80;;;;;;4974472;28;20042;-80
2021/08/03 12:28:55;;;;;;;2.08;1.33;;;21.00;92.70;;;;;;4974615;28;20026;-79
2021/08/03 12:31:28;;;;;;;1.67;1.02;;;21.20;92.80;;;;;;4973916;28;20042;-77
2021/08/03 12:34:10;;;;;;;3.15;0.90;;;21.30;92.00;;;;;;4973541;28;20042;-81
2021/08/03 12:36:47;;;;;;;3.60;1.58;;;21.60;92.10;;;;;;4961628;28;20226;-81
2021/08/03 12:39:22;;;;;;;1.42;1.02;;;21.70;91.80;;;;;;4965690;28;20384;-81
2021/08/03 12:42:10;;;;;;;2.50;1.48;;;21.70;91.80;;;;;;4972645;28;20373;-80
2021/08/03 12:44:39;;;;;;;2.33;1.42;;;21.40;91.20;;;;;;4954725;28;20046;-82
2021/08/03 12:47:19;;;;;;;1.88;0.98;;;21.50;90.90;;;;;;4963720;28;20080;-82
2021/08/03 12:49:48;;;;;;;2.85;1.10;;;21.90;91.00;;;;;;4974310;28;20030;-81
2021/08/03 12:52:20;;;;;;;2.10;1.00;;;22.20;89.60;;;;;;4973564;28;20037;-83
2021/08/03 12:55:08;;;;;;;1.55;0.93;;;22.10;90.20;;;;;;4962199;28;20488;-80
2021/08/03 12:57:50;;;;;;;2.00;1.23;;;22.00;90.20;;;;;;4964884;28;20489;-81
2021/08/03 13:00:35;;;;;;;1.02;0.80;;;21.70;90.80;;;;;;4969159;28;20055;-81
2021/08/03 13:03:08;;;;;;;1.48;1.13;;;21.40;89.70;;;;;;4973923;28;20465;-82